LLRD weather

Public forecast

Using degrees Celsius for public forecast. Weather courtesy of forecast.io.

Closest aviation weather report (METAR) to Ramat David Air Base

Report is more than 2 hours old.

Closest report is Haifa International Airport, 11.1 nm (20.5 km) NW. Retrieved 2020/08/09 16:50 UTC (3 hours ago):

LLHA 091650Z 27008KT 9999 FEW030 28/21 Q1006

Closest aviation forecast (TAF) to Ramat David Air Base

Closest forecast is Haifa International Airport, 11.1 nm (20.5 km) NW. Retrieved 2020/08/09 18:00 UTC (2 hours ago):

TAF LLHA 091703Z 0918/1018 27011KT 9999 SCT030 TEMPO 0922/1007 25006KT -RA BKN025 TX30/1011Z TN27/1003Z